Time;durP1;ratioP1;P1;durP2;ratioP2;P2;SDS_P1;SDS_P2;PMS_P1;PMS_P2;Temp;Humidity;BMP_temperature;BMP_pressure;BME280_temperature;BME280_humidity;BME280_pressure;Samples;Min_cycle;Max_cycle;Signal;HPM_P1;HPM_P2
2021/12/28 00:01:01;;;;;;;;;;;;;;;10.78;100.00;96131.75;5032827;28;19940;-75
2021/12/28 00:03:28;;;;;;;;;;;;;;;10.30;100.00;96125.19;5016502;28;19925;-75
2021/12/28 00:05:55;;;;;;;;;;;;;;;10.50;100.00;96116.75;5033825;28;19967;-75
2021/12/28 00:08:22;;;;;;;;;;;;;;;10.34;100.00;96122.94;5019275;28;19925;-75
2021/12/28 00:10:50;;;;;;;;;;;;;;;10.54;100.00;96122.91;5028022;28;20383;-75
2021/12/28 00:13:17;;;;;;;;;;;;;;;10.40;100.00;96118.94;5034004;28;19968;-75
2021/12/28 00:15:50;;;;;;;;;;;;;;;10.43;100.00;96117.97;5033903;28;20054;-75
2021/12/28 00:18:17;;;;;;;;;;;;;;;10.43;100.00;96119.97;5049134;28;19926;-75
2021/12/28 00:20:46;;;;;;;;;;;;;;;10.82;100.00;96126.69;5033209;28;19925;-74
2021/12/28 00:23:19;;;;;;;;;;;;;;;10.41;100.00;96122.50;5033641;28;19932;-75
2021/12/28 00:25:49;;;;;;;;;;;;;;;10.59;100.00;96122.94;5033680;28;19932;-75
2021/12/28 00:28:19;;;;;;;;;;;;;;;10.52;100.00;96136.56;5014286;28;20434;-75
2021/12/28 00:30:47;;;;;;;;;;;;;;;10.94;100.00;96145.06;5032555;28;20352;-75
2021/12/28 00:33:15;;;;;;;;;;;;;;;11.22;100.00;96140.47;5033320;28;19925;-75
2021/12/28 00:35:42;;;;;;;;;;;;;;;11.38;100.00;96150.22;5045488;28;19964;-75
2021/12/28 00:38:11;;;;;;;;;;;;;;;11.43;100.00;96164.25;5045258;28;19933;-75
2021/12/28 00:40:40;;;;;;;;;;;;;;;11.46;100.00;96149.28;5044133;28;20368;-75
2021/12/28 00:43:07;;;;;;;;;;;;;;;11.45;100.00;96147.72;5019061;28;20292;-75
2021/12/28 00:45:34;;;;;;;;;;;;;;;11.50;100.00;96147.00;5021075;28;19936;-75
2021/12/28 00:48:01;;;;;;;;;;;;;;;11.54;100.00;96153.13;5013153;28;19933;-75
2021/12/28 00:50:29;;;;;;;;;;;;;;;11.59;100.00;96157.22;5027566;28;19925;-75
2021/12/28 00:52:56;;;;;;;;;;;;;;;11.57;100.00;96154.91;5032216;28;20261;-75
2021/12/28 00:55:28;;;;;;;;;;;;;;;11.45;100.00;96144.19;5032205;28;19994;-75
2021/12/28 00:57:55;;;;;;;;;;;;;;;11.52;100.00;96150.06;5029198;28;19925;-75
2021/12/28 01:00:24;;;;;;;;;;;;;;;11.39;100.00;96146.91;5045041;28;19961;-75
2021/12/28 01:02:53;;;;;;;;;;;;;;;11.25;100.00;96147.88;5015297;28;19929;-75
2021/12/28 01:05:23;;;;;;;;;;;;;;;10.78;100.00;96137.31;5029071;28;19933;-75
2021/12/28 01:07:51;;;;;;;;;;;;;;;10.45;100.00;96140.56;5032937;28;19932;-75
2021/12/28 01:10:22;;;;;;;;;;;;;;;10.22;100.00;96127.63;4996033;28;19932;-74
2021/12/28 01:12:49;;;;;;;;;;;;;;;10.05;100.00;96120.31;5036297;28;19925;-75
2021/12/28 01:15:20;;;;;;;;;;;;;;;9.92;100.00;96111.53;5036019;28;19947;-75
2021/12/28 01:17:47;;;;;;;;;;;;;;;9.84;100.00;96118.78;5036753;28;19925;-75
2021/12/28 01:20:14;;;;;;;;;;;;;;;9.87;100.00;96112.25;5035625;28;19926;-75
2021/12/28 01:22:42;;;;;;;;;;;;;;;9.95;100.00;96127.31;5034258;28;20383;-75
2021/12/28 01:25:10;;;;;;;;;;;;;;;10.13;100.00;96144.50;5036479;28;20288;-75
2021/12/28 01:27:38;;;;;;;;;;;;;;;10.31;100.00;96149.03;5037024;28;20376;-75
2021/12/28 01:30:06;;;;;;;;;;;;;;;10.41;100.00;96148.38;5035996;28;19979;-75
2021/12/28 01:32:39;;;;;;;;;;;;;;;10.84;100.00;96150.06;5036600;28;19932;-75
2021/12/28 01:35:08;;;;;;;;;;;;;;;10.78;100.00;96148.50;5018650;28;19932;-75
2021/12/28 01:37:37;;;;;;;;;;;;;;;10.77;100.00;96156.09;5036774;28;20019;-75
2021/12/28 01:40:09;;;;;;;;;;;;;;;10.79;100.00;96161.19;5036872;28;20410;-75
2021/12/28 01:43:01;;;;;;;;;;;;;;;10.61;100.00;96161.53;5036316;28;19975;-75
2021/12/28 01:45:31;;;;;;;;;;;;;;;10.70;100.00;96158.56;5048537;28;20435;-75
2021/12/28 01:47:59;;;;;;;;;;;;;;;10.99;100.00;96158.31;4999409;28;19971;-75
2021/12/28 01:50:26;;;;;;;;;;;;;;;11.24;100.00;96168.66;5017883;28;20030;-75
2021/12/28 01:52:53;;;;;;;;;;;;;;;11.39;100.00;96168.53;5026611;28;19932;-75
2021/12/28 01:55:21;;;;;;;;;;;;;;;11.47;100.00;96170.38;5034429;28;19984;-75
2021/12/28 01:57:49;;;;;;;;;;;;;;;11.49;100.00;96164.28;5035118;28;19925;-75
2021/12/28 02:00:16;;;;;;;;;;;;;;;11.50;100.00;96152.59;5025559;28;19925;-75
2021/12/28 02:02:43;;;;;;;;;;;;;;;11.49;100.00;96148.28;5035840;28;19926;-75
2021/12/28 02:05:10;;;;;;;;;;;;;;;11.46;100.00;96134.53;5035384;28;19987;-75
2021/12/28 02:07:38;;;;;;;;;;;;;;;11.44;100.00;96128.66;5034793;28;19960;-75
2021/12/28 02:10:05;;;;;;;;;;;;;;;11.35;100.00;96134.44;5034847;28;19967;-75
2021/12/28 02:12:32;;;;;;;;;;;;;;;11.11;100.00;96150.78;5024404;28;20443;-76
2021/12/28 02:15:05;;;;;;;;;;;;;;;11.14;100.00;96153.34;5024976;28;20292;-75
2021/12/28 02:17:33;;;;;;;;;;;;;;;11.35;100.00;96149.19;5036223;28;19925;-75
2021/12/28 02:20:15;;;;;;;;;;;;;;;11.45;100.00;96152.56;5034548;28;19933;-75
2021/12/28 02:22:45;;;;;;;;;;;;;;;11.47;100.00;96153.59;5023730;28;20252;-75
2021/12/28 02:25:17;;;;;;;;;;;;;;;11.52;100.00;96144.47;5030164;28;19971;-75
2021/12/28 02:28:06;;;;;;;;;;;;;;;11.60;100.00;96151.13;4999862;28;20388;-75
2021/12/28 02:30:39;;;;;;;;;;;;;;;11.61;100.00;96144.28;5032476;28;19925;-75
2021/12/28 02:33:06;;;;;;;;;;;;;;;11.56;100.00;96142.22;5035517;28;19925;-75
2021/12/28 02:35:33;;;;;;;;;;;;;;;11.60;100.00;96145.53;5035495;28;19992;-75
2021/12/28 02:38:00;;;;;;;;;;;;;;;11.61;100.00;96146.31;5035432;28;20383;-75
2021/12/28 02:40:29;;;;;;;;;;;;;;;11.38;100.00;96131.41;5017865;28;19925;-75
2021/12/28 02:42:57;;;;;;;;;;;;;;;11.30;100.00;96127.56;5035468;28;19948;-75
2021/12/28 02:45:26;;;;;;;;;;;;;;;11.40;100.00;96126.09;5035077;28;19935;-75
2021/12/28 02:47:54;;;;;;;;;;;;;;;11.45;100.00;96127.41;5016501;28;20047;-75
2021/12/28 02:50:29;;;;;;;;;;;;;;;11.47;100.00;96119.28;5034801;28;19925;-75
2021/12/28 02:52:56;;;;;;;;;;;;;;;11.51;100.00;96120.56;5031390;28;19925;-75
2021/12/28 02:55:25;;;;;;;;;;;;;;;11.52;100.00;96122.13;5050707;28;19940;-75
2021/12/28 02:57:55;;;;;;;;;;;;;;;11.55;100.00;96126.72;5050534;28;19925;-75
2021/12/28 03:00:34;;;;;;;;;;;;;;;11.39;100.00;96107.78;5019035;28;19972;-75
2021/12/28 03:03:05;;;;;;;;;;;;;;;11.33;100.00;96103.44;5032918;28;20019;-75
2021/12/28 03:05:39;;;;;;;;;;;;;;;11.22;100.00;96089.41;5033979;28;19925;-75
2021/12/28 03:08:07;;;;;;;;;;;;;;;11.23;100.00;96086.09;5034747;28;19933;-75
2021/12/28 03:10:37;;;;;;;;;;;;;;;11.24;100.00;96090.41;5034529;28;19932;-75
2021/12/28 03:13:05;;;;;;;;;;;;;;;11.24;100.00;96084.09;5035230;28;19925;-75
2021/12/28 03:15:32;;;;;;;;;;;;;;;11.28;100.00;96085.38;5033491;28;19953;-75
2021/12/28 03:17:59;;;;;;;;;;;;;;;11.27;100.00;96083.84;5033220;28;19932;-75
2021/12/28 03:20:27;;;;;;;;;;;;;;;11.22;100.00;96092.97;5034257;28;19929;-75
2021/12/28 03:22:54;;;;;;;;;;;;;;;11.21;100.00;96087.88;5034413;28;19929;-75
2021/12/28 03:25:21;;;;;;;;;;;;;;;11.22;100.00;96092.19;5034071;28;19972;-75
2021/12/28 03:27:48;;;;;;;;;;;;;;;11.25;100.00;96091.19;5033554;28;19971;-75
2021/12/28 03:30:18;;;;;;;;;;;;;;;11.27;100.00;96083.84;5034267;28;19931;-75
2021/12/28 03:32:47;;;;;;;;;;;;;;;11.20;100.00;96073.13;5034080;28;20288;-75
2021/12/28 03:35:15;;;;;;;;;;;;;;;11.13;100.00;96070.81;5046732;28;19956;-75
2021/12/28 03:37:42;;;;;;;;;;;;;;;11.08;100.00;96057.56;5015110;28;19987;-75
2021/12/28 03:40:11;;;;;;;;;;;;;;;11.07;100.00;96064.44;5031899;28;19925;-75
2021/12/28 03:42:38;;;;;;;;;;;;;;;11.06;100.00;96060.09;5033405;28;19929;-75
2021/12/28 03:45:07;;;;;;;;;;;;;;;11.11;100.00;96053.00;5034170;28;19925;-75
2021/12/28 03:47:34;;;;;;;;;;;;;;;11.19;100.00;96054.06;5032962;28;19972;-75
2021/12/28 03:50:04;;;;;;;;;;;;;;;11.26;100.00;96053.59;5032770;28;19929;-75
2021/12/28 03:52:31;;;;;;;;;;;;;;;11.28;100.00;96051.06;5034001;28;19925;-75
2021/12/28 03:54:58;;;;;;;;;;;;;;;10.84;100.00;96045.97;5029637;28;19925;-75
2021/12/28 03:57:25;;;;;;;;;;;;;;;10.32;100.00;96033.38;5039966;28;20283;-75
2021/12/28 03:59:53;;;;;;;;;;;;;;;10.38;100.00;96025.81;5039943;28;19925;-75
2021/12/28 04:02:20;;;;;;;;;;;;;;;10.55;100.00;96016.31;5015851;28;20303;-75
2021/12/28 04:04:47;;;;;;;;;;;;;;;10.73;100.00;96021.53;5034039;28;19932;-75
2021/12/28 04:07:19;;;;;;;;;;;;;;;10.96;100.00;96025.22;5033696;28;20018;-75
2021/12/28 04:12:20;;;;;;;;;;;;;;;11.05;100.00;96016.66;5032907;28;19925;-75
2021/12/28 04:14:49;;;;;;;;;;;;;;;11.10;100.00;96013.13;5032964;28;20283;-75
2021/12/28 04:17:17;;;;;;;;;;;;;;;11.16;100.00;96011.13;5033514;28;19925;-75
2021/12/28 04:19:49;;;;;;;;;;;;;;;11.13;100.00;96003.75;5033911;28;19925;-75
2021/12/28 04:22:19;;;;;;;;;;;;;;;11.12;100.00;95999.41;5031253;28;19931;-75
2021/12/28 04:24:46;;;;;;;;;;;;;;;11.08;100.00;95993.31;5029461;28;19956;-75
2021/12/28 04:27:20;;;;;;;;;;;;;;;10.83;100.00;95994.94;5032181;28;19933;-75
2021/12/28 04:29:47;;;;;;;;;;;;;;;10.62;100.00;95996.31;5033301;28;19925;-75
2021/12/28 04:32:15;;;;;;;;;;;;;;;10.55;100.00;95994.00;5048359;28;19929;-75
2021/12/28 04:34:42;;;;;;;;;;;;;;;10.77;100.00;95985.75;5045056;28;19980;-75
2021/12/28 04:37:09;;;;;;;;;;;;;;;10.92;100.00;95985.59;5013974;28;19932;-75
2021/12/28 04:39:36;;;;;;;;;;;;;;;11.02;100.00;95978.56;5026460;28;19963;-75
2021/12/28 04:42:04;;;;;;;;;;;;;;;11.03;100.00;95977.28;5017928;28;19925;-75
2021/12/28 04:44:31;;;;;;;;;;;;;;;11.10;100.00;95974.03;5011996;28;19925;-75
2021/12/28 04:46:58;;;;;;;;;;;;;;;10.98;100.00;95967.59;5013049;28;19933;-75
2021/12/28 04:49:27;;;;;;;;;;;;;;;10.90;100.00;95966.53;5027976;28;20372;-75
2021/12/28 04:51:54;;;;;;;;;;;;;;;11.06;100.00;95967.91;5031323;28;19967;-75
2021/12/28 04:54:22;;;;;;;;;;;;;;;11.10;100.00;95962.84;5031875;28;19932;-75
2021/12/28 04:56:51;;;;;;;;;;;;;;;11.12;100.00;95960.31;5032804;28;19925;-75
2021/12/28 04:59:18;;;;;;;;;;;;;;;11.10;100.00;95957.25;5033104;28;19978;-75
2021/12/28 05:01:46;;;;;;;;;;;;;;;11.09;100.00;95961.31;5032264;28;19946;-75
2021/12/28 05:04:13;;;;;;;;;;;;;;;11.07;100.00;95947.09;5033752;28;19932;-75
2021/12/28 05:06:41;;;;;;;;;;;;;;;11.16;100.00;95949.66;5048505;28;19925;-75
2021/12/28 05:09:10;;;;;;;;;;;;;;;11.17;100.00;95945.59;5031407;28;19925;-75
2021/12/28 05:11:39;;;;;;;;;;;;;;;11.13;100.00;95945.09;5032416;28;20279;-75
2021/12/28 05:14:08;;;;;;;;;;;;;;;11.18;100.00;95943.59;5033152;28;19925;-75
2021/12/28 05:16:35;;;;;;;;;;;;;;;11.14;100.00;95940.25;5016279;28;19995;-75
2021/12/28 05:19:04;;;;;;;;;;;;;;;11.10;100.00;95946.09;5033226;28;20372;-74
2021/12/28 05:21:34;;;;;;;;;;;;;;;11.18;100.00;95947.13;5032743;28;19929;-75
2021/12/28 05:24:02;;;;;;;;;;;;;;;11.20;100.00;95946.63;5032045;28;19925;-75
2021/12/28 05:26:29;;;;;;;;;;;;;;;11.06;100.00;95939.94;5031685;28;19962;-75
2021/12/28 05:28:59;;;;;;;;;;;;;;;11.13;100.00;95935.94;5033018;28;19929;-75
2021/12/28 05:31:30;;;;;;;;;;;;;;;11.17;100.00;95930.84;5031597;28;19925;-75
2021/12/28 05:33:58;;;;;;;;;;;;;;;11.17;100.00;95934.44;5031980;28;19975;-75
2021/12/28 05:36:25;;;;;;;;;;;;;;;11.15;100.00;95930.63;5032711;28;19929;-75
2021/12/28 05:38:52;;;;;;;;;;;;;;;11.13;100.00;95922.72;5033354;28;19925;-75
2021/12/28 05:41:19;;;;;;;;;;;;;;;10.85;100.00;95924.63;5032321;28;19983;-75
2021/12/28 05:44:12;;;;;;;;;;;;;;;10.66;100.00;95923.50;5032843;28;20406;-75
2021/12/28 05:46:41;;;;;;;;;;;;;;;10.52;100.00;95921.66;5032512;28;20249;-75
2021/12/28 05:49:08;;;;;;;;;;;;;;;10.59;100.00;95918.38;5032930;28;19925;-75
2021/12/28 05:51:35;;;;;;;;;;;;;;;10.64;100.00;95920.44;5032713;28;19932;-75
2021/12/28 05:54:05;;;;;;;;;;;;;;;10.85;100.00;95919.03;5031549;28;20524;-74
2021/12/28 05:56:32;;;;;;;;;;;;;;;10.93;100.00;95911.72;5019023;28;20283;-75
2021/12/28 05:58:59;;;;;;;;;;;;;;;11.02;100.00;95902.34;5035358;28;19925;-75
2021/12/28 06:01:26;;;;;;;;;;;;;;;11.04;100.00;95899.84;5036077;28;19929;-75
2021/12/28 06:03:53;;;;;;;;;;;;;;;11.04;100.00;95903.41;5034985;28;19932;-75
2021/12/28 06:06:22;;;;;;;;;;;;;;;11.12;100.00;95898.09;5036692;28;20419;-75
2021/12/28 06:08:51;;;;;;;;;;;;;;;11.12;100.00;95896.03;5034866;28;20019;-75
2021/12/28 06:11:19;;;;;;;;;;;;;;;11.13;100.00;95892.00;5036018;28;19932;-75
2021/12/28 06:13:47;;;;;;;;;;;;;;;11.17;100.00;95894.53;5036539;28;19926;-75
2021/12/28 06:16:15;;;;;;;;;;;;;;;11.25;100.00;95884.41;5036352;28;20360;-75
2021/12/28 06:18:44;;;;;;;;;;;;;;;11.23;100.00;95882.13;5035957;28;19971;-75
2021/12/28 06:21:11;;;;;;;;;;;;;;;11.18;100.00;95880.06;5022111;28;20027;-75
2021/12/28 06:23:38;;;;;;;;;;;;;;;11.16;100.00;95876.25;5033677;28;19929;-75
2021/12/28 06:26:05;;;;;;;;;;;;;;;11.22;100.00;95879.81;5034308;28;19936;-75
2021/12/28 06:28:32;;;;;;;;;;;;;;;11.23;100.00;95873.72;5036034;28;19925;-75
2021/12/28 06:30:59;;;;;;;;;;;;;;;11.18;100.00;95868.16;5035802;28;20395;-75
2021/12/28 06:33:27;;;;;;;;;;;;;;;11.15;100.00;95869.16;5035507;28;19937;-75
2021/12/28 06:35:55;;;;;;;;;;;;;;;11.12;100.00;95870.91;5047066;28;19930;-75
2021/12/28 06:38:24;;;;;;;;;;;;;;;11.11;100.00;95868.59;5005587;28;19931;-75
2021/12/28 06:40:51;;;;;;;;;;;;;;;11.13;100.00;95861.28;5024871;28;20297;-75
2021/12/28 06:43:19;;;;;;;;;;;;;;;11.16;100.00;95853.91;5035216;28;19925;-75
2021/12/28 06:45:46;;;;;;;;;;;;;;;11.15;100.00;95844.75;5018007;28;20018;-75
2021/12/28 06:48:13;;;;;;;;;;;;;;;11.18;100.00;95843.00;5033599;28;19933;-75
2021/12/28 06:50:41;;;;;;;;;;;;;;;11.11;100.00;95844.25;5030652;28;20280;-75
2021/12/28 06:53:08;;;;;;;;;;;;;;;11.14;100.00;95832.06;5032592;28;19939;-75
2021/12/28 06:55:35;;;;;;;;;;;;;;;11.14;100.00;95829.25;5034864;28;19925;-75
2021/12/28 06:58:04;;;;;;;;;;;;;;;11.14;100.00;95829.25;5035644;28;19925;-75
2021/12/28 07:00:32;;;;;;;;;;;;;;;11.14;100.00;95822.91;5050933;28;20024;-75
2021/12/28 07:03:04;;;;;;;;;;;;;;;11.14;100.00;95822.91;5034229;28;20455;-75
2021/12/28 07:05:32;;;;;;;;;;;;;;;11.15;100.00;95825.19;5015930;28;19932;-75
2021/12/28 07:07:59;;;;;;;;;;;;;;;11.12;100.00;95825.47;5019291;28;20348;-75
2021/12/28 07:10:26;;;;;;;;;;;;;;;11.10;100.00;95820.38;5035201;28;19936;-75
2021/12/28 07:12:55;;;;;;;;;;;;;;;11.12;100.00;95826.19;5031666;28;19929;-75
2021/12/28 07:15:23;;;;;;;;;;;;;;;11.13;100.00;95815.78;5027782;28;19936;-75
2021/12/28 07:21:57;;;;;;;;;;;;;;;11.05;100.00;95806.38;5033278;28;19960;-75
2021/12/28 07:24:24;;;;;;;;;;;;;;;11.03;100.00;95800.53;5024080;28;19925;-75
2021/12/28 07:26:52;;;;;;;;;;;;;;;10.89;100.00;95802.25;5032838;28;19964;-75
2021/12/28 07:29:19;;;;;;;;;;;;;;;10.80;100.00;95794.88;5016293;28;19926;-75
2021/12/28 07:31:49;;;;;;;;;;;;;;;10.85;100.00;95796.94;5049948;28;19959;-75
2021/12/28 07:34:17;;;;;;;;;;;;;;;10.90;100.00;95803.81;5020480;28;19932;-75
2021/12/28 07:36:44;;;;;;;;;;;;;;;10.91;100.00;95805.31;5028946;28;19933;-75
2021/12/28 07:39:11;;;;;;;;;;;;;;;10.93;100.00;95797.22;5014905;28;19932;-75
2021/12/28 07:41:38;;;;;;;;;;;;;;;10.94;100.00;95799.50;5015879;28;19926;-75
2021/12/28 07:44:05;;;;;;;;;;;;;;;10.98;100.00;95805.59;5032426;28;19934;-75
2021/12/28 07:48:12;;;;;;;;;;;;;;;11.01;100.00;95803.84;5110085;27;20359;-76
2021/12/28 07:50:46;;;;;;;;;;;;;;;11.06;100.00;95805.13;5104586;28;20319;-75
2021/12/28 07:53:13;;;;;;;;;;;;;;;10.92;100.00;95806.84;5111095;28;19924;-75
2021/12/28 07:56:05;;;;;;;;;;;;;;;10.64;100.00;95811.56;5110590;28;19962;-75
2021/12/28 07:58:32;;;;;;;;;;;;;;;10.62;100.00;95805.72;5095397;28;19969;-74
2021/12/28 08:01:00;;;;;;;;;;;;;;;10.76;100.00;95821.53;5097440;28;19924;-75
2021/12/28 08:03:35;;;;;;;;;;;;;;;10.87;100.00;95811.13;5090774;28;20011;-75
2021/12/28 08:06:03;;;;;;;;;;;;;;;10.81;100.00;95818.00;5086311;28;19925;-75
2021/12/28 08:08:39;;;;;;;;;;;;;;;10.79;100.00;95815.69;5082723;28;19924;-75
2021/12/28 08:11:08;;;;;;;;;;;;;;;10.84;100.00;95823.31;5094750;28;19924;-75
2021/12/28 08:13:35;;;;;;;;;;;;;;;10.66;100.00;95828.59;5100525;28;19933;-75
2021/12/28 08:16:02;;;;;;;;;;;;;;;10.87;100.00;95827.91;5106350;28;20073;-75
2021/12/28 08:18:32;;;;;;;;;;;;;;;10.96;100.00;95833.25;5106766;28;19935;-75
2021/12/28 08:20:59;;;;;;;;;;;;;;;10.88;100.00;95828.66;5109086;28;20356;-75
2021/12/28 08:23:26;;;;;;;;;;;;;;;10.98;100.00;95841.91;5118299;27;19929;-75
2021/12/28 08:25:56;;;;;;;;;;;;;;;11.03;100.00;95840.41;5105518;28;19924;-75
2021/12/28 08:28:23;;;;;;;;;;;;;;;10.90;100.00;95848.50;5073734;28;19932;-75
2021/12/28 08:30:50;;;;;;;;;;;;;;;10.90;100.00;95859.66;5086888;28;19932;-77
2021/12/28 08:33:18;;;;;;;;;;;;;;;10.98;100.00;95859.94;5097756;28;19924;-75
2021/12/28 08:35:45;;;;;;;;;;;;;;;10.87;100.00;95858.63;5089873;28;19927;-75
2021/12/28 08:38:12;;;;;;;;;;;;;;;10.68;100.00;95865.13;5078618;28;20044;-75
2021/12/28 08:40:42;;;;;;;;;;;;;;;10.93;100.00;95867.03;5105051;28;19924;-75
2021/12/28 08:43:10;;;;;;;;;;;;;;;11.03;100.00;95873.19;5107951;28;19970;-75
2021/12/28 08:45:38;;;;;;;;;;;;;;;11.08;100.00;95878.78;5100445;28;19931;-77
2021/12/28 08:48:06;;;;;;;;;;;;;;;11.07;100.00;95874.47;5091798;28;19954;-75
2021/12/28 08:50:35;;;;;;;;;;;;;;;10.15;100.00;95877.00;5086357;28;20022;-75
2021/12/28 08:53:02;;;;;;;;;;;;;;;10.42;100.00;95881.25;5105760;28;20362;-75
2021/12/28 08:55:30;;;;;;;;;;;;;;;10.72;100.00;95882.44;5071922;28;19924;-75
2021/12/28 08:57:57;;;;;;;;;;;;;;;10.52;100.00;95897.28;5083789;28;20035;-75
2021/12/28 09:00:27;;;;;;;;;;;;;;;10.81;100.00;95896.19;5092234;28;19924;-75
2021/12/28 09:02:57;;;;;;;;;;;;;;;10.83;100.00;95893.63;5092561;28;19980;-75
2021/12/28 09:05:25;;;;;;;;;;;;;;;10.90;100.00;95893.16;5087056;28;19928;-75
2021/12/28 09:07:54;;;;;;;;;;;;;;;10.41;100.00;95900.00;5092754;28;19993;-74
2021/12/28 09:10:22;;;;;;;;;;;;;;;10.39;100.00;95908.09;5079313;28;19952;-75
2021/12/28 09:12:49;;;;;;;;;;;;;;;10.85;100.00;95914.22;5075123;28;19924;-74
2021/12/28 09:15:20;;;;;;;;;;;;;;;10.47;100.00;95911.97;5091898;28;19925;-75
2021/12/28 09:17:47;;;;;;;;;;;;;;;10.77;100.00;95927.13;5090525;28;19924;-79
2021/12/28 09:20:17;;;;;;;;;;;;;;;10.90;100.00;95929.47;5093072;28;19928;-77
2021/12/28 09:23:02;;;;;;;;;;;;;;;10.94;100.00;95938.38;5086661;28;19924;-77
2021/12/28 09:25:30;;;;;;;;;;;;;;;10.96;100.00;95939.41;5075131;28;19974;-78
2021/12/28 09:27:58;;;;;;;;;;;;;;;11.03;100.00;95945.81;5057777;28;19931;-77
2021/12/28 09:30:26;;;;;;;;;;;;;;;10.98;100.00;95954.91;5090714;28;19931;-78
2021/12/28 09:32:53;;;;;;;;;;;;;;;10.92;100.00;95954.84;5092695;28;19924;-77
2021/12/28 09:35:24;;;;;;;;;;;;;;;11.03;100.00;95959.78;5074106;28;19928;-77
2021/12/28 09:37:51;;;;;;;;;;;;;;;11.05;100.00;95966.38;5091978;28;20278;-77
2021/12/28 09:40:21;;;;;;;;;;;;;;;11.12;100.00;95974.28;5093685;28;20110;-78
2021/12/28 09:42:49;;;;;;;;;;;;;;;11.15;100.00;95981.66;5094686;28;19928;-78
2021/12/28 09:45:17;;;;;;;;;;;;;;;11.17;100.00;95987.50;5072443;28;19985;-78
2021/12/28 09:47:45;;;;;;;;;;;;;;;11.08;100.00;95998.91;5092397;28;20306;-78
2021/12/28 09:50:15;;;;;;;;;;;;;;;11.17;100.00;96003.50;5083753;28;19924;-77
2021/12/28 09:52:49;;;;;;;;;;;;;;;10.89;100.00;96006.13;5056109;28;19929;-77
2021/12/28 09:55:27;;;;;;;;;;;;;;;11.12;100.00;96018.97;5081082;28;20393;-78
2021/12/28 09:57:58;;;;;;;;;;;;;;;11.21;100.00;96018.78;5090099;28;19924;-78
2021/12/28 10:00:25;;;;;;;;;;;;;;;11.03;100.00;96013.59;5068045;28;20014;-77
2021/12/28 10:03:03;;;;;;;;;;;;;;;11.11;100.00;96020.25;5080031;28;19942;-78
2021/12/28 10:05:31;;;;;;;;;;;;;;;10.92;100.00;96025.47;5066589;28;19924;-78
2021/12/28 10:07:59;;;;;;;;;;;;;;;10.81;100.00;96030.22;5076074;28;20360;-78
2021/12/28 10:10:30;;;;;;;;;;;;;;;11.06;100.00;96034.94;5083615;28;19924;-78
2021/12/28 10:12:59;;;;;;;;;;;;;;;10.68;100.00;96038.22;5091717;28;19978;-78
2021/12/28 10:15:32;;;;;;;;;;;;;;;10.38;100.00;96054.47;5079791;28;20509;-78
2021/12/28 10:18:04;;;;;;;;;;;;;;;10.73;100.00;96062.63;5086434;28;19931;-78
2021/12/28 10:20:44;;;;;;;;;;;;;;;10.72;100.00;96069.50;5092868;28;19928;-77
2021/12/28 10:23:15;;;;;;;;;;;;;;;10.92;100.00;96070.16;5094606;28;19924;-77
2021/12/28 10:25:49;;;;;;;;;;;;;;;11.15;100.00;96073.84;5076340;28;20282;-78
2021/12/28 10:28:18;;;;;;;;;;;;;;;11.39;100.00;96079.84;5066000;28;19931;-77
2021/12/28 10:30:48;;;;;;;;;;;;;;;11.13;100.00;96068.03;5094167;28;19928;-77
2021/12/28 10:33:17;;;;;;;;;;;;;;;11.35;100.00;96076.53;5094504;28;19999;-77
2021/12/28 10:35:46;;;;;;;;;;;;;;;11.18;100.00;96081.25;5071995;28;19924;-78
2021/12/28 10:38:16;;;;;;;;;;;;;;;11.28;100.00;96090.19;5075943;28;19924;-78
2021/12/28 10:40:47;;;;;;;;;;;;;;;10.99;100.00;96092.03;5091337;28;19930;-78
2021/12/28 10:43:17;;;;;;;;;;;;;;;10.68;100.00;96094.06;5086654;28;19924;-78
2021/12/28 10:45:47;;;;;;;;;;;;;;;10.46;100.00;96110.63;5092098;28;20524;-79
2021/12/28 10:48:16;;;;;;;;;;;;;;;10.45;100.00;96120.28;5088273;28;19924;-78
2021/12/28 10:50:49;;;;;;;;;;;;;;;10.68;100.00;96128.34;5074526;28;19925;-78
2021/12/28 10:53:24;;;;;;;;;;;;;;;10.71;100.00;96132.94;5080680;28;19924;-78
2021/12/28 10:55:55;;;;;;;;;;;;;;;10.89;100.00;96137.41;5085457;28;19967;-78
2021/12/28 10:58:25;;;;;;;;;;;;;;;10.89;100.00;96149.34;5081027;28;20582;-79
2021/12/28 11:00:53;;;;;;;;;;;;;;;10.52;100.00;96164.47;5070363;28;19924;-79
2021/12/28 11:03:26;;;;;;;;;;;;;;;10.47;100.00;96174.31;5086555;28;19924;-78
2021/12/28 11:05:55;;;;;;;;;;;;;;;10.54;100.00;96175.94;5065065;28;19928;-79
2021/12/28 11:08:24;;;;;;;;;;;;;;;10.43;100.00;96195.34;5068347;28;20302;-79
2021/12/28 11:10:54;;;;;;;;;;;;;;;10.76;100.00;96204.06;5067206;28;19924;-78
2021/12/28 11:13:24;;;;;;;;;;;;;;;10.91;100.00;96201.91;5078116;28;19924;-78
2021/12/28 11:15:51;;;;;;;;;;;;;;;10.88;100.00;96211.28;5066338;28;19928;-77
2021/12/28 11:18:30;;;;;;;;;;;;;;;10.55;100.00;96217.31;5080706;28;19924;-78
2021/12/28 11:20:59;;;;;;;;;;;;;;;10.20;100.00;96232.59;5082134;28;19932;-78
2021/12/28 11:23:28;;;;;;;;;;;;;;;10.31;100.00;96232.75;5081642;28;19977;-76
2021/12/28 11:26:02;;;;;;;;;;;;;;;10.76;100.00;96240.34;5086721;28;19928;-76
2021/12/28 11:28:30;;;;;;;;;;;;;;;10.70;100.00;96247.91;5087799;28;19932;-76
2021/12/28 11:30:57;;;;;;;;;;;;;;;10.53;100.00;96260.91;5079211;28;19959;-76
2021/12/28 11:33:26;;;;;;;;;;;;;;;10.83;100.00;96256.66;5092976;28;19925;-76
2021/12/28 11:35:53;;;;;;;;;;;;;;;10.79;100.00;96250.53;5095633;28;19924;-78
2021/12/28 11:38:21;;;;;;;;;;;;;;;10.97;100.00;96250.22;5084903;28;19930;-78
2021/12/28 11:40:51;;;;;;;;;;;;;;;11.23;100.00;96266.97;5093627;28;19977;-77
2021/12/28 11:43:19;;;;;;;;;;;;;;;11.11;100.00;96266.13;5102715;28;19981;-77
2021/12/28 11:45:46;;;;;;;;;;;;;;;11.50;100.00;96274.81;5079590;28;19928;-77
2021/12/28 11:48:13;;;;;;;;;;;;;;;11.73;100.00;96271.75;5088960;28;20005;-77
2021/12/28 11:50:44;;;;;;;;;;;;;;;11.77;100.00;96279.94;5085237;28;19931;-76
2021/12/28 11:53:14;;;;;;;;;;;;;;;11.93;100.00;96291.22;5082782;28;19924;-76
2021/12/28 11:55:43;;;;;;;;;;;;;;;11.31;100.00;96302.38;5095013;28;19931;-77
2021/12/28 11:58:12;;;;;;;;;;;;;;;11.10;100.00;96314.88;5095777;28;20349;-76
2021/12/28 12:00:40;;;;;;;;;;;;;;;11.07;100.00;96327.03;5081937;28;19974;-77
2021/12/28 12:03:08;;;;;;;;;;;;;;;10.40;100.00;96344.22;5071791;28;19932;-77
2021/12/28 12:05:43;;;;;;;;;;;;;;;10.54;100.00;96358.13;5082245;28;19963;-77
2021/12/28 12:08:15;;;;;;;;;;;;;;;10.54;100.00;96362.97;5084990;28;19932;-78
2021/12/28 12:10:46;;;;;;;;;;;;;;;10.65;100.00;96368.66;5084403;28;19928;-78
2021/12/28 12:13:25;;;;;;;;;;;;;;;11.27;100.00;96373.75;5082047;28;20022;-77
2021/12/28 12:15:54;;;;;;;;;;;;;;;11.19;100.00;96372.63;5087118;28;19924;-77
2021/12/28 12:18:24;;;;;;;;;;;;;;;10.37;100.00;96403.81;5058585;28;19924;-77
2021/12/28 12:20:55;;;;;;;;;;;;;;;10.03;100.00;96396.94;5065353;28;19928;-77
2021/12/28 12:23:23;;;;;;;;;;;;;;;10.39;100.00;96415.28;5074121;28;19925;-77
2021/12/28 12:25:57;;;;;;;;;;;;;;;10.53;100.00;96425.59;5074920;28;19932;-77
2021/12/28 12:28:57;;;;;;;;;;;;;;;10.26;100.00;96431.53;5044194;28;20462;-77
2021/12/28 12:31:29;;;;;;;;;;;;;;;10.31;100.00;96456.00;5047784;28;19947;-77
2021/12/28 12:33:58;;;;;;;;;;;;;;;10.15;100.00;96456.47;5057072;28;19924;-77
2021/12/28 12:36:30;;;;;;;;;;;;;;;9.94;100.00;96457.63;5078819;28;20440;-76
2021/12/28 12:38:58;;;;;;;;;;;;;;;10.19;100.00;96468.97;5047558;28;19924;-78
2021/12/28 12:41:38;;;;;;;;;;;;;;;9.77;100.00;96478.88;5093464;28;19932;-75
2021/12/28 12:44:07;;;;;;;;;;;;;;;9.89;100.00;96475.03;5090478;28;19951;-76
2021/12/28 12:46:40;;;;;;;;;;;;;;;9.98;100.00;96480.53;5097784;28;20400;-76
2021/12/28 12:49:08;;;;;;;;;;;;;;;9.86;100.00;96470.44;5074337;28;19924;-77
2021/12/28 12:51:37;;;;;;;;;;;;;;;9.97;100.00;96504.06;5095082;28;19930;-77
2021/12/28 12:54:22;;;;;;;;;;;;;;;10.16;100.00;96522.94;5068928;28;20012;-75
2021/12/28 12:56:49;;;;;;;;;;;;;;;10.13;100.00;96540.66;5085196;28;19928;-76